| time (UTC) | temp F | wind direction | speed MPH | gust MPH | rain 1hr in | rain 24hr in | rain mn in | humidity % | barometer mb |
| 20260506004551 | 80 | 104 | 0.0 | 0.0 | 0.00 | 0.00 | 0.00 | 81 | 1016.0 |
| 20260506003046 | 80 | 98 | 0.0 | 0.0 | 0.00 | 0.00 | 0.00 | 80 | 1015.7 |
| 20260506001546 | 80 | 129 | 0.0 | 0.0 | 0.00 | 0.00 | 0.00 | 80 | 1015.7 |
| 20260506000045 | 81 | 131 | 0.0 | 0.0 | 0.00 | 0.00 | 0.00 | 79 | 1015.6 |
| 20260505234544 | 81 | 91 | 0.0 | 0.0 | 0.00 | 0.00 | 0.00 | 79 | 1015.5 |
| 20260505233044 | 81 | 136 | 0.0 | 0.0 | 0.00 | 0.00 | 0.00 | 78 | 1015.5 |
| 20260505231543 | 82 | 178 | 0.0 | 1.0 | 0.00 | 0.00 | 0.00 | 76 | 1015.3 |
| 20260505230048 | 82 | 156 | 0.0 | 0.0 | 0.00 | 0.00 | 0.00 | 74 | 1015.2 |
| 20260505224546 | 83 | 113 | 0.0 | 0.0 | 0.00 | 0.00 | 0.00 | 73 | 1015.1 |
| 20260505223044 | 84 | 120 | 0.0 | 4.0 | 0.00 | 0.00 | 0.00 | 70 | 1015.0 |
| 20260505221540 | 84 | 116 | 0.0 | 0.0 | 0.00 | 0.00 | 0.00 | 69 | 1014.8 |
| 20260505220043 | 85 | 204 | 0.0 | 0.0 | 0.00 | 0.00 | 0.00 | 68 | 1014.5 |
| 20260505214539 | 86 | 86 | 0.0 | 9.0 | 0.00 | 0.00 | 0.00 | 67 | 1014.4 |
| 20260505213045 | 87 | 110 | 0.0 | 7.0 | 0.00 | 0.00 | 0.00 | 65 | 1014.2 |
| 20260505211542 | 87 | 127 | 0.0 | 0.0 | 0.00 | 0.00 | 0.00 | 64 | 1014.0 |
| 20260505210037 | 87 | 114 | 0.0 | 6.0 | 0.00 | 0.00 | 0.00 | 63 | 1014.1 |
| 20260505204536 | 88 | 121 | 0.0 | 8.0 | 0.00 | 0.00 | 0.00 | 61 | 1014.0 |
| 20260505203041 | 88 | 158 | 1.0 | 12.0 | 0.00 | 0.00 | 0.00 | 59 | 1014.2 |
| 20260505201535 | 88 | 160 | 0.0 | 0.0 | 0.00 | 0.00 | 0.00 | 59 | 1014.1 |
| 20260505200033 | 89 | 157 | 0.0 | 8.0 | 0.00 | 0.00 | 0.00 | 57 | 1014.1 |
| 20260505194532 | 89 | 121 | 1.0 | 11.0 | 0.00 | 0.00 | 0.00 | 58 | 1014.2 |
| 20260505193038 | 89 | 113 | 0.0 | 8.0 | 0.00 | 0.00 | 0.00 | 59 | 1014.2 |
| 20260505191528 | 90 | 95 | 0.0 | 9.0 | 0.00 | 0.00 | 0.00 | 58 | 1014.3 |
| 20260505190038 | 90 | 157 | 0.0 | 10.0 | 0.00 | 0.00 | 0.00 | 58 | 1014.4 |
| 20260505184529 | 90 | 172 | 0.0 | 2.0 | 0.00 | 0.00 | 0.00 | 60 | 1014.5 |
| 20260505183027 | 89 | 124 | 1.0 | 12.0 | 0.00 | 0.00 | 0.00 | 58 | 1014.7 |
| 20260505181524 | 90 | 111 | 0.0 | 10.0 | 0.00 | 0.00 | 0.00 | 58 | 1014.8 |
| 20260505180033 | 89 | 128 | 0.0 | 12.0 | 0.00 | 0.00 | 0.00 | 60 | 1015.1 |
| 20260505174520 | 89 | 152 | 0.0 | 11.0 | 0.00 | 0.00 | 0.00 | 61 | 1015.3 |
| 20260505173019 | 89 | 111 | 0.0 | 8.0 | 0.00 | 0.00 | 0.00 | 61 | 1015.3 |
| 20260505171517 | 89 | 103 | 1.0 | 13.0 | 0.00 | 0.00 | 0.00 | 61 | 1015.4 |
| 20260505170018 | 86 | 150 | 0.0 | 8.0 | 0.00 | 0.00 | 0.00 | 69 | 1015.6 |
| 20260505164515 | 88 | 169 | 2.0 | 13.0 | 0.00 | 0.00 | 0.00 | 66 | 1015.8 |
| 20260505163015 | 88 | 129 | 1.0 | 12.0 | 0.00 | 0.00 | 0.00 | 64 | 1015.7 |
| 20260505161613 | 88 | 184 | 2.0 | 15.0 | 0.00 | 0.00 | 0.00 | 66 | 1015.7 |
| 20260505153010 | 88 | 134 | 0.0 | 15.0 | 0.00 | 0.00 | 0.00 | 66 | 1015.7 |
| 20260505151509 | 88 | 124 | 0.0 | 15.0 | 0.00 | 0.00 | 0.00 | 65 | 1015.7 |
| 20260505140107 | 83 | 167 | 2.0 | 9.0 | 0.00 | 0.00 | 0.00 | 75 | 1016.0 |
| 20260505124554 | 83 | 150 | 0.0 | 3.0 | 0.00 | 0.00 | 0.00 | 79 | 1015.8 |
| 20260505123057 | 82 | 195 | 0.0 | 0.0 | 0.00 | 0.00 | 0.00 | 81 | 1015.8 |
| 20260505121544 | 80 | 82 | 0.0 | 0.0 | 0.00 | 0.00 | 0.00 | 81 | 1015.7 |
| 20260505120052 | 79 | 164 | 0.0 | 0.0 | 0.00 | 0.00 | 0.00 | 81 | 1015.7 |
| 20260505114541 | 79 | 148 | 0.0 | 0.0 | 0.00 | 0.00 | 0.00 | 81 | 1015.7 |
| 20260505113038 | 79 | 156 | 0.0 | 0.0 | 0.00 | 0.00 | 0.00 | 81 | 1015.5 |
| 20260505111536 | 78 | 156 | 0.0 | 0.0 | 0.00 | 0.00 | 0.00 | 79 | 1015.3 |
| 20260505101535 | 75 | 233 | 0.0 | 0.0 | 0.00 | 0.00 | 0.00 | 74 | 1014.6 |
| 20260505100033 | 75 | 153 | 0.0 | 0.0 | 0.00 | 0.00 | 0.00 | 72 | 1014.5 |
| 20260505094532 | 75 | 229 | 0.0 | 0.0 | 0.00 | 0.00 | 0.00 | 72 | 1014.5 |
| 20260505093032 | 75 | 225 | 0.0 | 0.0 | 0.00 | 0.00 | 0.00 | 71 | 1014.4 |
| 20260505091532 | 75 | 212 | 0.0 | 0.0 | 0.00 | 0.00 | 0.00 | 73 | 1014.3 |
| 20260505090030 | 75 | 171 | 0.0 | 0.0 | 0.00 | 0.00 | 0.00 | 72 | 1014.3 |
| 20260505084544 | 75 | 205 | 0.0 | 0.0 | 0.00 | 0.00 | 0.00 | 73 | 1014.1 |
| 20260505083046 | 75 | 230 | 0.0 | 0.0 | 0.00 | 0.00 | 0.00 | 73 | 1014.1 |
| 20260505081532 | 75 | 230 | 0.0 | 0.0 | 0.00 | 0.00 | 0.00 | 71 | 1014.0 |
| 20260505080037 | 75 | 215 | 0.0 | 0.0 | 0.00 | 0.00 | 0.00 | 74 | 1014.0 |
| 20260505074525 | 76 | 216 | 0.0 | 0.0 | 0.00 | 0.00 | 0.00 | 72 | 1013.8 |
| 20260505073035 | 76 | 210 | 0.0 | 0.0 | 0.00 | 0.00 | 0.00 | 73 | 1013.9 |
| 20260505071528 | 76 | 210 | 0.0 | 0.0 | 0.00 | 0.00 | 0.00 | 74 | 1013.9 |
| 20260505070025 | 76 | 210 | 0.0 | 0.0 | 0.00 | 0.00 | 0.00 | 76 | 1013.9 |
| 20260505064520 | 76 | 210 | 0.0 | 0.0 | 0.00 | 0.00 | 0.00 | 75 | 1014.0 |
| 20260505063021 | 76 | 210 | 0.0 | 0.0 | 0.00 | 0.00 | 0.00 | 74 | 1014.0 |
| 20260505061526 | 76 | 210 | 0.0 | 0.0 | 0.00 | 0.00 | 0.00 | 75 | 1014.0 |
| 20260505060020 | 76 | 174 | 0.0 | 0.0 | 0.00 | 0.00 | 0.00 | 76 | 1014.2 |
| 20260505054513 | 76 | 226 | 0.0 | 0.0 | 0.00 | 0.00 | 0.00 | 77 | 1014.5 |
| 20260505053010 | 76 | 227 | 0.0 | 0.0 | 0.00 | 0.00 | 0.00 | 78 | 1014.7 |
| 20260505051509 | 76 | 217 | 0.0 | 0.0 | 0.00 | 0.00 | 0.00 | 79 | 1014.8 |
| 20260505041604 | 77 | 172 | 0.0 | 0.0 | 0.00 | 0.00 | 0.00 | 81 | 1015.2 |
| 20260505040056 | 78 | 293 | 0.0 | 0.0 | 0.00 | 0.00 | 0.00 | 81 | 1015.3 |
| 20260505034552 | 78 | 8 | 0.0 | 0.0 | 0.00 | 0.00 | 0.00 | 81 | 1015.5 |
| 20260505033052 | 79 | 8 | 0.0 | 0.0 | 0.00 | 0.00 | 0.00 | 81 | 1015.6 |
| 20260505031553 | 78 | 217 | 0.0 | 0.0 | 0.00 | 0.00 | 0.00 | 81 | 1015.5 |
| 20260505030109 | 77 | 217 | 0.0 | 0.0 | 0.00 | 0.00 | 0.00 | 81 | 1015.6 |
| 20260505024556 | 77 | 198 | 0.0 | 0.0 | 0.00 | 0.00 | 0.00 | 81 | 1015.5 |
| 20260505023050 | 78 | 213 | 0.0 | 0.0 | 0.00 | 0.00 | 0.00 | 81 | 1015.5 |
| 20260505021550 | 78 | 188 | 0.0 | 0.0 | 0.00 | 0.00 | 0.00 | 81 | 1015.5 |
| 20260505020048 | 78 | 158 | 0.0 | 0.0 | 0.00 | 0.00 | 0.00 | 81 | 1015.5 |
| 20260505014603 | 79 | 224 | 0.0 | 0.0 | 0.00 | 0.00 | 0.00 | 81 | 1015.4 |
| 20260505013052 | 80 | 143 | 0.0 | 0.0 | 0.00 | 0.00 | 0.00 | 81 | 1015.2 |
| 20260505011550 | 80 | 117 | 0.0 | 0.0 | 0.00 | 0.00 | 0.00 | 81 | 1015.0 |
| 20260505010055 | 80 | 105 | 0.0 | 0.0 | 0.00 | 0.00 | 0.00 | 81 | 1014.9 |